sensor_id;sensor_type;location;lat;lon;timestamp;P1;durP1;ratioP1;P2;durP2;ratioP2
31660;SDS011;18267;52.234;7.444;2022-07-19T00:00:46;1.48;;;1.38;;
31660;SDS011;18267;52.234;7.444;2022-07-19T00:03:12;2.92;;;1.52;;
31660;SDS011;18267;52.234;7.444;2022-07-19T00:05:38;6.30;;;1.70;;
31660;SDS011;18267;52.234;7.444;2022-07-19T00:08:04;2.50;;;1.92;;
31660;SDS011;18267;52.234;7.444;2022-07-19T00:10:30;6.93;;;1.77;;
31660;SDS011;18267;52.234;7.444;2022-07-19T00:12:55;4.20;;;1.90;;
31660;SDS011;18267;52.234;7.444;2022-07-19T00:15:21;4.78;;;2.33;;
31660;SDS011;18267;52.234;7.444;2022-07-19T00:17:47;3.80;;;2.05;;
31660;SDS011;18267;52.234;7.444;2022-07-19T00:20:14;3.33;;;1.80;;
31660;SDS011;18267;52.234;7.444;2022-07-19T00:22:42;4.90;;;2.05;;
31660;SDS011;18267;52.234;7.444;2022-07-19T00:25:07;3.00;;;1.77;;
31660;SDS011;18267;52.234;7.444;2022-07-19T00:27:33;4.10;;;1.65;;
31660;SDS011;18267;52.234;7.444;2022-07-19T00:29:59;3.13;;;1.85;;
31660;SDS011;18267;52.234;7.444;2022-07-19T00:32:24;3.53;;;1.67;;
31660;SDS011;18267;52.234;7.444;2022-07-19T00:34:50;2.15;;;1.75;;
31660;SDS011;18267;52.234;7.444;2022-07-19T00:37:16;4.53;;;2.03;;
31660;SDS011;18267;52.234;7.444;2022-07-19T00:39:42;3.17;;;2.00;;
31660;SDS011;18267;52.234;7.444;2022-07-19T00:42:07;2.97;;;1.92;;
31660;SDS011;18267;52.234;7.444;2022-07-19T00:44:33;12.65;;;1.83;;
31660;SDS011;18267;52.234;7.444;2022-07-19T00:46:58;3.05;;;1.98;;
31660;SDS011;18267;52.234;7.444;2022-07-19T00:49:24;7.07;;;2.00;;
31660;SDS011;18267;52.234;7.444;2022-07-19T00:51:50;9.40;;;2.17;;
31660;SDS011;18267;52.234;7.444;2022-07-19T00:54:19;9.90;;;2.20;;
31660;SDS011;18267;52.234;7.444;2022-07-19T00:56:48;6.00;;;1.77;;
31660;SDS011;18267;52.234;7.444;2022-07-19T00:59:14;17.15;;;2.30;;
31660;SDS011;18267;52.234;7.444;2022-07-19T01:01:40;6.20;;;1.95;;
31660;SDS011;18267;52.234;7.444;2022-07-19T01:04:07;6.07;;;2.00;;
31660;SDS011;18267;52.234;7.444;2022-07-19T01:06:32;2.10;;;1.83;;
31660;SDS011;18267;52.234;7.444;2022-07-19T01:08:58;2.72;;;1.77;;
31660;SDS011;18267;52.234;7.444;2022-07-19T01:11:24;1.63;;;1.50;;
31660;SDS011;18267;52.234;7.444;2022-07-19T01:13:50;3.60;;;1.98;;
31660;SDS011;18267;52.234;7.444;2022-07-19T01:16:15;5.38;;;1.88;;
31660;SDS011;18267;52.234;7.444;2022-07-19T01:18:41;5.53;;;1.98;;
31660;SDS011;18267;52.234;7.444;2022-07-19T01:21:07;5.05;;;1.80;;
31660;SDS011;18267;52.234;7.444;2022-07-19T01:23:41;3.28;;;1.83;;
31660;SDS011;18267;52.234;7.444;2022-07-19T01:26:07;9.57;;;2.30;;
31660;SDS011;18267;52.234;7.444;2022-07-19T01:28:32;3.08;;;1.85;;
31660;SDS011;18267;52.234;7.444;2022-07-19T01:30:58;2.78;;;1.90;;
31660;SDS011;18267;52.234;7.444;2022-07-19T01:33:23;6.13;;;1.60;;
31660;SDS011;18267;52.234;7.444;2022-07-19T01:35:49;3.58;;;1.90;;
31660;SDS011;18267;52.234;7.444;2022-07-19T01:38:14;3.38;;;1.95;;
31660;SDS011;18267;52.234;7.444;2022-07-19T01:40:40;3.10;;;2.05;;
31660;SDS011;18267;52.234;7.444;2022-07-19T01:43:06;4.60;;;1.95;;
31660;SDS011;18267;52.234;7.444;2022-07-19T01:45:32;3.08;;;1.52;;
31660;SDS011;18267;52.234;7.444;2022-07-19T01:47:58;4.22;;;1.58;;
31660;SDS011;18267;52.234;7.444;2022-07-19T01:50:23;2.75;;;1.73;;
31660;SDS011;18267;52.234;7.444;2022-07-19T01:52:49;2.70;;;1.85;;
31660;SDS011;18267;52.234;7.444;2022-07-19T01:55:14;5.38;;;1.83;;
31660;SDS011;18267;52.234;7.444;2022-07-19T01:57:40;5.80;;;1.65;;
31660;SDS011;18267;52.234;7.444;2022-07-19T02:00:06;3.40;;;1.80;;
31660;SDS011;18267;52.234;7.444;2022-07-19T02:02:32;2.38;;;2.17;;
31660;SDS011;18267;52.234;7.444;2022-07-19T02:04:57;2.90;;;1.65;;
31660;SDS011;18267;52.234;7.444;2022-07-19T02:07:23;6.45;;;2.03;;
31660;SDS011;18267;52.234;7.444;2022-07-19T02:09:48;3.53;;;2.05;;
31660;SDS011;18267;52.234;7.444;2022-07-19T02:12:14;2.90;;;1.80;;
31660;SDS011;18267;52.234;7.444;2022-07-19T02:14:39;5.80;;;1.98;;
31660;SDS011;18267;52.234;7.444;2022-07-19T02:17:05;6.68;;;2.00;;
31660;SDS011;18267;52.234;7.444;2022-07-19T02:19:30;3.40;;;1.90;;
31660;SDS011;18267;52.234;7.444;2022-07-19T02:21:56;2.35;;;1.80;;
31660;SDS011;18267;52.234;7.444;2022-07-19T02:24:21;3.03;;;2.00;;
31660;SDS011;18267;52.234;7.444;2022-07-19T02:26:47;2.03;;;1.65;;
31660;SDS011;18267;52.234;7.444;2022-07-19T02:29:12;4.63;;;1.95;;
31660;SDS011;18267;52.234;7.444;2022-07-19T02:31:38;3.08;;;1.85;;
31660;SDS011;18267;52.234;7.444;2022-07-19T02:34:04;4.63;;;2.05;;
31660;SDS011;18267;52.234;7.444;2022-07-19T02:36:29;3.88;;;2.05;;
31660;SDS011;18267;52.234;7.444;2022-07-19T02:38:55;1.98;;;1.67;;
31660;SDS011;18267;52.234;7.444;2022-07-19T02:41:21;3.58;;;1.83;;
31660;SDS011;18267;52.234;7.444;2022-07-19T02:43:46;2.25;;;2.05;;
31660;SDS011;18267;52.234;7.444;2022-07-19T02:46:12;7.45;;;2.53;;
31660;SDS011;18267;52.234;7.444;2022-07-19T02:48:37;3.13;;;2.40;;
31660;SDS011;18267;52.234;7.444;2022-07-19T02:51:03;6.68;;;2.55;;
31660;SDS011;18267;52.234;7.444;2022-07-19T02:53:29;3.10;;;2.00;;
31660;SDS011;18267;52.234;7.444;2022-07-19T02:55:54;3.08;;;1.70;;
31660;SDS011;18267;52.234;7.444;2022-07-19T02:58:20;3.22;;;1.90;;
31660;SDS011;18267;52.234;7.444;2022-07-19T03:00:45;5.32;;;2.65;;
31660;SDS011;18267;52.234;7.444;2022-07-19T03:03:12;2.00;;;1.73;;
31660;SDS011;18267;52.234;7.444;2022-07-19T03:05:56;3.65;;;1.65;;
31660;SDS011;18267;52.234;7.444;2022-07-19T03:08:22;3.28;;;2.10;;
31660;SDS011;18267;52.234;7.444;2022-07-19T03:10:47;5.65;;;2.25;;
31660;SDS011;18267;52.234;7.444;2022-07-19T03:13:13;5.88;;;2.20;;
31660;SDS011;18267;52.234;7.444;2022-07-19T03:15:39;4.68;;;2.20;;
31660;SDS011;18267;52.234;7.444;2022-07-19T03:18:04;3.50;;;2.28;;
31660;SDS011;18267;52.234;7.444;2022-07-19T03:20:30;2.83;;;2.25;;
31660;SDS011;18267;52.234;7.444;2022-07-19T03:22:55;9.88;;;1.83;;
31660;SDS011;18267;52.234;7.444;2022-07-19T03:25:21;7.55;;;2.38;;
31660;SDS011;18267;52.234;7.444;2022-07-19T03:27:47;4.85;;;2.15;;
31660;SDS011;18267;52.234;7.444;2022-07-19T03:30:13;3.13;;;2.40;;
31660;SDS011;18267;52.234;7.444;2022-07-19T03:32:38;2.95;;;2.45;;
31660;SDS011;18267;52.234;7.444;2022-07-19T03:35:04;4.35;;;1.90;;
31660;SDS011;18267;52.234;7.444;2022-07-19T03:37:30;3.17;;;2.40;;
31660;SDS011;18267;52.234;7.444;2022-07-19T03:39:56;4.72;;;2.47;;
31660;SDS011;18267;52.234;7.444;2022-07-19T03:42:21;8.27;;;2.72;;
31660;SDS011;18267;52.234;7.444;2022-07-19T03:44:47;4.15;;;1.95;;
31660;SDS011;18267;52.234;7.444;2022-07-19T03:47:12;5.80;;;2.00;;
31660;SDS011;18267;52.234;7.444;2022-07-19T03:49:38;8.35;;;2.72;;
31660;SDS011;18267;52.234;7.444;2022-07-19T03:52:03;3.25;;;2.40;;
31660;SDS011;18267;52.234;7.444;2022-07-19T03:54:29;2.72;;;2.42;;
31660;SDS011;18267;52.234;7.444;2022-07-19T03:56:54;4.13;;;2.65;;
31660;SDS011;18267;52.234;7.444;2022-07-19T03:59:20;2.47;;;2.28;;
31660;SDS011;18267;52.234;7.444;2022-07-19T04:01:47;4.88;;;1.85;;
31660;SDS011;18267;52.234;7.444;2022-07-19T04:04:14;5.38;;;2.15;;
31660;SDS011;18267;52.234;7.444;2022-07-19T04:06:40;11.00;;;3.45;;
31660;SDS011;18267;52.234;7.444;2022-07-19T04:09:05;6.63;;;2.10;;
31660;SDS011;18267;52.234;7.444;2022-07-19T04:11:31;3.90;;;2.25;;
31660;SDS011;18267;52.234;7.444;2022-07-19T04:13:57;4.40;;;2.28;;
31660;SDS011;18267;52.234;7.444;2022-07-19T04:16:22;2.90;;;2.60;;
31660;SDS011;18267;52.234;7.444;2022-07-19T04:18:48;7.03;;;2.95;;
31660;SDS011;18267;52.234;7.444;2022-07-19T04:21:14;7.03;;;2.63;;
31660;SDS011;18267;52.234;7.444;2022-07-19T04:23:39;8.30;;;2.22;;
31660;SDS011;18267;52.234;7.444;2022-07-19T04:26:05;3.85;;;2.30;;
31660;SDS011;18267;52.234;7.444;2022-07-19T04:28:30;5.82;;;2.63;;
31660;SDS011;18267;52.234;7.444;2022-07-19T04:30:56;4.35;;;2.67;;
31660;SDS011;18267;52.234;7.444;2022-07-19T04:33:21;7.07;;;2.25;;
31660;SDS011;18267;52.234;7.444;2022-07-19T04:35:47;3.05;;;2.20;;
31660;SDS011;18267;52.234;7.444;2022-07-19T04:38:12;7.82;;;2.58;;
31660;SDS011;18267;52.234;7.444;2022-07-19T04:40:38;5.22;;;2.05;;
31660;SDS011;18267;52.234;7.444;2022-07-19T04:43:04;6.93;;;2.38;;
31660;SDS011;18267;52.234;7.444;2022-07-19T04:45:29;4.93;;;2.22;;
31660;SDS011;18267;52.234;7.444;2022-07-19T04:47:55;2.90;;;2.40;;
31660;SDS011;18267;52.234;7.444;2022-07-19T04:50:21;6.20;;;2.53;;
31660;SDS011;18267;52.234;7.444;2022-07-19T04:52:46;11.73;;;2.50;;
31660;SDS011;18267;52.234;7.444;2022-07-19T04:55:12;3.97;;;2.40;;
31660;SDS011;18267;52.234;7.444;2022-07-19T04:57:38;9.07;;;2.00;;
31660;SDS011;18267;52.234;7.444;2022-07-19T05:00:05;4.22;;;2.33;;
31660;SDS011;18267;52.234;7.444;2022-07-19T05:02:34;4.95;;;2.60;;
31660;SDS011;18267;52.234;7.444;2022-07-19T05:04:59;9.15;;;2.80;;
31660;SDS011;18267;52.234;7.444;2022-07-19T05:07:25;6.85;;;3.00;;
31660;SDS011;18267;52.234;7.444;2022-07-19T05:09:51;6.10;;;3.03;;
31660;SDS011;18267;52.234;7.444;2022-07-19T05:12:16;8.43;;;3.22;;
31660;SDS011;18267;52.234;7.444;2022-07-19T05:14:42;9.25;;;3.53;;
31660;SDS011;18267;52.234;7.444;2022-07-19T05:17:07;3.55;;;2.65;;
31660;SDS011;18267;52.234;7.444;2022-07-19T05:19:33;3.67;;;2.80;;
31660;SDS011;18267;52.234;7.444;2022-07-19T05:21:58;3.13;;;2.90;;
31660;SDS011;18267;52.234;7.444;2022-07-19T05:24:24;4.88;;;3.10;;
31660;SDS011;18267;52.234;7.444;2022-07-19T05:26:49;3.08;;;2.78;;
31660;SDS011;18267;52.234;7.444;2022-07-19T05:29:15;6.40;;;3.22;;
31660;SDS011;18267;52.234;7.444;2022-07-19T05:31:40;8.32;;;2.97;;
31660;SDS011;18267;52.234;7.444;2022-07-19T05:34:06;4.97;;;3.13;;
31660;SDS011;18267;52.234;7.444;2022-07-19T05:36:31;3.58;;;3.03;;
31660;SDS011;18267;52.234;7.444;2022-07-19T05:38:57;7.30;;;3.17;;
31660;SDS011;18267;52.234;7.444;2022-07-19T05:41:22;5.57;;;2.70;;
31660;SDS011;18267;52.234;7.444;2022-07-19T05:43:49;7.30;;;3.50;;
31660;SDS011;18267;52.234;7.444;2022-07-19T05:46:15;5.60;;;3.47;;
31660;SDS011;18267;52.234;7.444;2022-07-19T05:48:41;6.97;;;3.58;;
31660;SDS011;18267;52.234;7.444;2022-07-19T05:51:07;11.80;;;3.17;;
31660;SDS011;18267;52.234;7.444;2022-07-19T05:53:34;5.68;;;3.80;;
31660;SDS011;18267;52.234;7.444;2022-07-19T05:56:00;4.72;;;3.33;;
31660;SDS011;18267;52.234;7.444;2022-07-19T05:58:26;6.25;;;2.88;;
31660;SDS011;18267;52.234;7.444;2022-07-19T06:00:51;8.85;;;3.17;;
31660;SDS011;18267;52.234;7.444;2022-07-19T06:06:22;6.55;;;3.30;;
31660;SDS011;18267;52.234;7.444;2022-07-19T06:08:50;6.35;;;3.60;;
31660;SDS011;18267;52.234;7.444;2022-07-19T06:11:15;4.63;;;2.92;;
31660;SDS011;18267;52.234;7.444;2022-07-19T06:13:42;6.55;;;3.22;;
31660;SDS011;18267;52.234;7.444;2022-07-19T06:16:09;7.93;;;2.78;;
31660;SDS011;18267;52.234;7.444;2022-07-19T06:18:35;8.32;;;2.55;;
31660;SDS011;18267;52.234;7.444;2022-07-19T06:21:02;6.47;;;3.05;;
31660;SDS011;18267;52.234;7.444;2022-07-19T06:23:29;7.53;;;2.75;;
31660;SDS011;18267;52.234;7.444;2022-07-19T06:25:55;2.72;;;2.40;;
31660;SDS011;18267;52.234;7.444;2022-07-19T06:28:21;3.65;;;2.78;;
31660;SDS011;18267;52.234;7.444;2022-07-19T06:30:46;5.75;;;2.63;;
31660;SDS011;18267;52.234;7.444;2022-07-19T06:33:12;3.78;;;2.40;;
31660;SDS011;18267;52.234;7.444;2022-07-19T06:35:38;6.70;;;2.45;;
31660;SDS011;18267;52.234;7.444;2022-07-19T06:38:05;3.10;;;2.42;;
31660;SDS011;18267;52.234;7.444;2022-07-19T06:40:30;4.55;;;2.33;;
31660;SDS011;18267;52.234;7.444;2022-07-19T06:42:56;3.83;;;2.30;;
31660;SDS011;18267;52.234;7.444;2022-07-19T06:45:21;3.13;;;2.22;;
31660;SDS011;18267;52.234;7.444;2022-07-19T06:47:47;4.25;;;2.17;;
31660;SDS011;18267;52.234;7.444;2022-07-19T06:50:13;6.90;;;2.88;;
31660;SDS011;18267;52.234;7.444;2022-07-19T06:52:38;3.80;;;2.10;;
31660;SDS011;18267;52.234;7.444;2022-07-19T06:55:04;4.13;;;1.92;;
31660;SDS011;18267;52.234;7.444;2022-07-19T06:57:30;3.75;;;1.80;;
31660;SDS011;18267;52.234;7.444;2022-07-19T06:59:55;4.50;;;2.22;;
31660;SDS011;18267;52.234;7.444;2022-07-19T07:02:21;6.38;;;2.08;;
31660;SDS011;18267;52.234;7.444;2022-07-19T07:04:46;6.10;;;2.08;;
31660;SDS011;18267;52.234;7.444;2022-07-19T07:07:12;10.48;;;1.60;;
31660;SDS011;18267;52.234;7.444;2022-07-19T07:09:38;4.55;;;1.73;;
31660;SDS011;18267;52.234;7.444;2022-07-19T07:12:04;4.97;;;1.60;;
31660;SDS011;18267;52.234;7.444;2022-07-19T07:14:29;2.63;;;1.60;;
31660;SDS011;18267;52.234;7.444;2022-07-19T07:16:55;4.80;;;2.10;;
31660;SDS011;18267;52.234;7.444;2022-07-19T07:19:20;8.38;;;1.77;;
31660;SDS011;18267;52.234;7.444;2022-07-19T07:21:46;2.88;;;1.52;;
31660;SDS011;18267;52.234;7.444;2022-07-19T07:24:12;3.42;;;1.50;;
31660;SDS011;18267;52.234;7.444;2022-07-19T07:26:37;3.00;;;1.75;;
31660;SDS011;18267;52.234;7.444;2022-07-19T07:29:03;4.38;;;1.90;;
31660;SDS011;18267;52.234;7.444;2022-07-19T07:31:28;5.55;;;1.80;;
31660;SDS011;18267;52.234;7.444;2022-07-19T07:33:54;5.70;;;1.58;;
31660;SDS011;18267;52.234;7.444;2022-07-19T07:36:19;3.65;;;1.90;;
31660;SDS011;18267;52.234;7.444;2022-07-19T07:38:45;2.97;;;1.52;;
31660;SDS011;18267;52.234;7.444;2022-07-19T07:41:10;3.97;;;1.48;;
31660;SDS011;18267;52.234;7.444;2022-07-19T07:43:36;3.00;;;1.90;;
31660;SDS011;18267;52.234;7.444;2022-07-19T07:46:01;6.13;;;1.60;;
31660;SDS011;18267;52.234;7.444;2022-07-19T07:48:27;2.15;;;1.30;;
31660;SDS011;18267;52.234;7.444;2022-07-19T07:50:53;2.10;;;1.40;;
31660;SDS011;18267;52.234;7.444;2022-07-19T07:53:18;5.82;;;1.25;;
31660;SDS011;18267;52.234;7.444;2022-07-19T07:55:44;1.60;;;1.20;;
31660;SDS011;18267;52.234;7.444;2022-07-19T07:58:10;2.17;;;1.33;;
31660;SDS011;18267;52.234;7.444;2022-07-19T08:00:36;8.32;;;1.20;;
31660;SDS011;18267;52.234;7.444;2022-07-19T08:03:04;2.47;;;1.20;;
31660;SDS011;18267;52.234;7.444;2022-07-19T08:05:30;2.67;;;1.23;;
31660;SDS011;18267;52.234;7.444;2022-07-19T08:07:56;4.38;;;1.10;;
31660;SDS011;18267;52.234;7.444;2022-07-19T08:10:24;2.00;;;1.10;;
31660;SDS011;18267;52.234;7.444;2022-07-19T08:12:51;7.60;;;0.98;;
31660;SDS011;18267;52.234;7.444;2022-07-19T08:15:17;2.97;;;1.10;;
31660;SDS011;18267;52.234;7.444;2022-07-19T08:17:43;6.85;;;2.08;;
31660;SDS011;18267;52.234;7.444;2022-07-19T08:20:08;3.55;;;1.30;;
31660;SDS011;18267;52.234;7.444;2022-07-19T08:22:34;3.83;;;1.42;;
31660;SDS011;18267;52.234;7.444;2022-07-19T08:25:00;3.30;;;1.05;;
31660;SDS011;18267;52.234;7.444;2022-07-19T08:27:26;2.95;;;1.42;;
31660;SDS011;18267;52.234;7.444;2022-07-19T08:29:51;5.65;;;1.30;;
31660;SDS011;18267;52.234;7.444;2022-07-19T08:32:17;3.17;;;1.80;;
31660;SDS011;18267;52.234;7.444;2022-07-19T08:34:42;3.28;;;1.33;;
31660;SDS011;18267;52.234;7.444;2022-07-19T08:37:08;12.25;;;1.30;;
31660;SDS011;18267;52.234;7.444;2022-07-19T08:39:34;3.25;;;1.30;;
31660;SDS011;18267;52.234;7.444;2022-07-19T08:41:59;1.40;;;1.15;;
31660;SDS011;18267;52.234;7.444;2022-07-19T08:44:25;5.63;;;1.30;;
31660;SDS011;18267;52.234;7.444;2022-07-19T08:46:52;4.47;;;1.15;;
31660;SDS011;18267;52.234;7.444;2022-07-19T08:49:19;4.40;;;1.45;;
31660;SDS011;18267;52.234;7.444;2022-07-19T08:51:46;1.73;;;1.15;;
31660;SDS011;18267;52.234;7.444;2022-07-19T08:54:13;2.58;;;1.40;;
31660;SDS011;18267;52.234;7.444;2022-07-19T08:56:39;2.97;;;1.05;;
31660;SDS011;18267;52.234;7.444;2022-07-19T08:59:23;5.53;;;1.10;;
31660;SDS011;18267;52.234;7.444;2022-07-19T09:01:49;3.08;;;1.50;;
31660;SDS011;18267;52.234;7.444;2022-07-19T09:04:21;1.25;;;1.15;;
31660;SDS011;18267;52.234;7.444;2022-07-19T09:09:21;5.65;;;1.50;;
31660;SDS011;18267;52.234;7.444;2022-07-19T09:11:57;1.50;;;1.05;;
31660;SDS011;18267;52.234;7.444;2022-07-19T09:17:06;4.07;;;1.42;;
31660;SDS011;18267;52.234;7.444;2022-07-19T09:22:05;2.22;;;1.50;;
31660;SDS011;18267;52.234;7.444;2022-07-19T09:24:34;2.80;;;1.50;;
31660;SDS011;18267;52.234;7.444;2022-07-19T09:27:03;2.33;;;1.10;;
31660;SDS011;18267;52.234;7.444;2022-07-19T09:29:30;3.40;;;1.20;;
31660;SDS011;18267;52.234;7.444;2022-07-19T09:32:06;4.72;;;1.40;;
31660;SDS011;18267;52.234;7.444;2022-07-19T09:34:39;8.15;;;1.42;;
31660;SDS011;18267;52.234;7.444;2022-07-19T09:39:45;4.90;;;1.30;;
31660;SDS011;18267;52.234;7.444;2022-07-19T09:42:13;5.38;;;1.10;;
31660;SDS011;18267;52.234;7.444;2022-07-19T09:44:40;1.42;;;1.23;;
31660;SDS011;18267;52.234;7.444;2022-07-19T09:47:06;1.90;;;1.10;;
31660;SDS011;18267;52.234;7.444;2022-07-19T09:49:32;1.20;;;1.02;;
31660;SDS011;18267;52.234;7.444;2022-07-19T09:51:57;1.25;;;1.13;;
31660;SDS011;18267;52.234;7.444;2022-07-19T09:54:24;5.38;;;0.95;;
31660;SDS011;18267;52.234;7.444;2022-07-19T09:56:52;0.95;;;0.90;;
31660;SDS011;18267;52.234;7.444;2022-07-19T09:59:19;3.85;;;0.93;;
31660;SDS011;18267;52.234;7.444;2022-07-19T10:01:46;4.32;;;1.40;;
31660;SDS011;18267;52.234;7.444;2022-07-19T10:04:16;4.80;;;1.10;;
31660;SDS011;18267;52.234;7.444;2022-07-19T10:06:46;2.50;;;1.00;;
31660;SDS011;18267;52.234;7.444;2022-07-19T10:09:14;6.10;;;0.90;;
31660;SDS011;18267;52.234;7.444;2022-07-19T10:11:41;3.83;;;1.20;;
31660;SDS011;18267;52.234;7.444;2022-07-19T10:14:07;6.70;;;1.15;;
31660;SDS011;18267;52.234;7.444;2022-07-19T10:21:57;1.38;;;1.10;;
31660;SDS011;18267;52.234;7.444;2022-07-19T10:27:43;2.03;;;1.20;;
31660;SDS011;18267;52.234;7.444;2022-07-19T10:32:36;5.60;;;1.10;;
31660;SDS011;18267;52.234;7.444;2022-07-19T10:43:03;4.78;;;1.10;;
31660;SDS011;18267;52.234;7.444;2022-07-19T10:45:41;2.47;;;1.08;;
31660;SDS011;18267;52.234;7.444;2022-07-19T10:48:08;4.20;;;1.50;;
31660;SDS011;18267;52.234;7.444;2022-07-19T10:50:43;5.20;;;1.20;;
31660;SDS011;18267;52.234;7.444;2022-07-19T10:56:19;3.97;;;1.10;;
31660;SDS011;18267;52.234;7.444;2022-07-19T10:58:52;6.38;;;1.15;;
31660;SDS011;18267;52.234;7.444;2022-07-19T11:01:18;6.93;;;1.00;;
31660;SDS011;18267;52.234;7.444;2022-07-19T11:03:46;5.90;;;1.95;;
31660;SDS011;18267;52.234;7.444;2022-07-19T11:06:19;1.60;;;1.08;;
31660;SDS011;18267;52.234;7.444;2022-07-19T11:08:47;1.40;;;1.30;;
31660;SDS011;18267;52.234;7.444;2022-07-19T11:11:17;1.60;;;1.30;;
31660;SDS011;18267;52.234;7.444;2022-07-19T11:13:47;2.00;;;1.00;;
31660;SDS011;18267;52.234;7.444;2022-07-19T11:16:15;2.97;;;1.25;;
31660;SDS011;18267;52.234;7.444;2022-07-19T11:18:41;6.03;;;1.10;;
31660;SDS011;18267;52.234;7.444;2022-07-19T11:21:08;2.15;;;1.13;;
31660;SDS011;18267;52.234;7.444;2022-07-19T11:23:35;2.65;;;1.60;;
31660;SDS011;18267;52.234;7.444;2022-07-19T11:28:39;0.93;;;0.80;;
31660;SDS011;18267;52.234;7.444;2022-07-19T11:31:10;1.48;;;1.17;;
31660;SDS011;18267;52.234;7.444;2022-07-19T11:33:39;2.10;;;0.95;;
31660;SDS011;18267;52.234;7.444;2022-07-19T11:36:05;8.43;;;1.10;;
31660;SDS011;18267;52.234;7.444;2022-07-19T11:38:37;3.67;;;1.35;;
31660;SDS011;18267;52.234;7.444;2022-07-19T11:41:07;3.30;;;0.98;;
31660;SDS011;18267;52.234;7.444;2022-07-19T11:44:00;4.28;;;1.15;;
31660;SDS011;18267;52.234;7.444;2022-07-19T11:46:27;4.50;;;1.50;;
31660;SDS011;18267;52.234;7.444;2022-07-19T11:48:58;1.45;;;1.00;;
31660;SDS011;18267;52.234;7.444;2022-07-19T11:51:24;4.57;;;1.23;;
31660;SDS011;18267;52.234;7.444;2022-07-19T11:53:52;2.35;;;1.00;;
31660;SDS011;18267;52.234;7.444;2022-07-19T11:56:23;3.85;;;1.35;;
31660;SDS011;18267;52.234;7.444;2022-07-19T11:58:50;2.00;;;1.30;;
31660;SDS011;18267;52.234;7.444;2022-07-19T12:01:27;4.28;;;0.88;;
31660;SDS011;18267;52.234;7.444;2022-07-19T12:03:58;8.57;;;1.35;;
31660;SDS011;18267;52.234;7.444;2022-07-19T12:09:05;2.50;;;1.38;;
31660;SDS011;18267;52.234;7.444;2022-07-19T12:11:38;3.65;;;1.20;;
31660;SDS011;18267;52.234;7.444;2022-07-19T12:14:19;1.30;;;0.98;;
31660;SDS011;18267;52.234;7.444;2022-07-19T12:16:50;3.05;;;1.17;;
31660;SDS011;18267;52.234;7.444;2022-07-19T12:19:37;6.43;;;1.25;;
31660;SDS011;18267;52.234;7.444;2022-07-19T12:22:04;4.85;;;1.02;;
31660;SDS011;18267;52.234;7.444;2022-07-19T12:24:30;4.28;;;1.20;;
31660;SDS011;18267;52.234;7.444;2022-07-19T12:27:00;4.28;;;1.63;;
31660;SDS011;18267;52.234;7.444;2022-07-19T12:32:36;1.35;;;1.10;;
31660;SDS011;18267;52.234;7.444;2022-07-19T12:35:07;2.22;;;1.15;;
31660;SDS011;18267;52.234;7.444;2022-07-19T12:37:37;6.30;;;1.35;;
31660;SDS011;18267;52.234;7.444;2022-07-19T12:40:07;2.00;;;1.27;;
31660;SDS011;18267;52.234;7.444;2022-07-19T12:42:48;3.40;;;1.50;;
31660;SDS011;18267;52.234;7.444;2022-07-19T12:45:25;1.60;;;1.42;;
31660;SDS011;18267;52.234;7.444;2022-07-19T12:47:51;2.38;;;1.20;;
31660;SDS011;18267;52.234;7.444;2022-07-19T12:50:25;2.35;;;1.20;;
31660;SDS011;18267;52.234;7.444;2022-07-19T12:52:54;2.20;;;1.10;;
31660;SDS011;18267;52.234;7.444;2022-07-19T12:55:22;7.60;;;1.40;;
31660;SDS011;18267;52.234;7.444;2022-07-19T12:57:48;3.85;;;1.50;;
31660;SDS011;18267;52.234;7.444;2022-07-19T13:00:15;2.13;;;1.13;;
31660;SDS011;18267;52.234;7.444;2022-07-19T13:02:42;4.78;;;1.48;;
31660;SDS011;18267;52.234;7.444;2022-07-19T13:05:07;3.92;;;1.38;;
31660;SDS011;18267;52.234;7.444;2022-07-19T13:07:33;5.68;;;1.20;;
31660;SDS011;18267;52.234;7.444;2022-07-19T13:09:59;2.58;;;1.23;;
31660;SDS011;18267;52.234;7.444;2022-07-19T13:12:24;1.38;;;1.27;;
31660;SDS011;18267;52.234;7.444;2022-07-19T13:14:50;1.10;;;0.90;;
31660;SDS011;18267;52.234;7.444;2022-07-19T13:17:16;1.67;;;1.33;;
31660;SDS011;18267;52.234;7.444;2022-07-19T13:19:41;1.85;;;1.20;;
31660;SDS011;18267;52.234;7.444;2022-07-19T13:22:07;2.75;;;1.45;;
31660;SDS011;18267;52.234;7.444;2022-07-19T13:24:33;3.90;;;1.17;;
31660;SDS011;18267;52.234;7.444;2022-07-19T13:26:58;2.97;;;1.23;;
31660;SDS011;18267;52.234;7.444;2022-07-19T13:29:24;4.85;;;1.27;;
31660;SDS011;18267;52.234;7.444;2022-07-19T13:31:50;3.08;;;1.40;;
31660;SDS011;18267;52.234;7.444;2022-07-19T13:34:16;3.47;;;1.67;;
31660;SDS011;18267;52.234;7.444;2022-07-19T13:36:42;3.60;;;1.35;;
31660;SDS011;18267;52.234;7.444;2022-07-19T13:39:08;2.33;;;1.40;;
31660;SDS011;18267;52.234;7.444;2022-07-19T13:41:35;2.58;;;1.23;;
31660;SDS011;18267;52.234;7.444;2022-07-19T13:44:02;2.47;;;1.63;;
31660;SDS011;18267;52.234;7.444;2022-07-19T13:46:28;5.13;;;1.42;;
31660;SDS011;18267;52.234;7.444;2022-07-19T13:48:53;5.70;;;1.10;;
31660;SDS011;18267;52.234;7.444;2022-07-19T13:51:27;10.95;;;1.70;;
31660;SDS011;18267;52.234;7.444;2022-07-19T13:53:53;5.20;;;1.85;;
31660;SDS011;18267;52.234;7.444;2022-07-19T13:56:19;1.50;;;1.40;;
31660;SDS011;18267;52.234;7.444;2022-07-19T13:58:45;4.10;;;1.23;;
31660;SDS011;18267;52.234;7.444;2022-07-19T14:01:11;4.72;;;1.77;;
31660;SDS011;18267;52.234;7.444;2022-07-19T14:03:37;3.75;;;1.17;;
31660;SDS011;18267;52.234;7.444;2022-07-19T14:06:03;1.10;;;1.00;;
31660;SDS011;18267;52.234;7.444;2022-07-19T14:08:28;1.90;;;1.17;;
31660;SDS011;18267;52.234;7.444;2022-07-19T14:10:54;2.00;;;0.90;;
31660;SDS011;18267;52.234;7.444;2022-07-19T14:13:19;1.60;;;1.05;;
31660;SDS011;18267;52.234;7.444;2022-07-19T14:15:45;3.47;;;1.20;;
31660;SDS011;18267;52.234;7.444;2022-07-19T14:18:11;3.50;;;1.45;;
31660;SDS011;18267;52.234;7.444;2022-07-19T14:20:41;4.05;;;1.13;;
31660;SDS011;18267;52.234;7.444;2022-07-19T14:23:08;9.27;;;1.20;;
31660;SDS011;18267;52.234;7.444;2022-07-19T14:25:34;7.05;;;1.20;;
31660;SDS011;18267;52.234;7.444;2022-07-19T14:28:00;2.22;;;0.82;;
31660;SDS011;18267;52.234;7.444;2022-07-19T14:30:25;2.58;;;1.17;;
31660;SDS011;18267;52.234;7.444;2022-07-19T14:32:51;2.67;;;1.30;;
31660;SDS011;18267;52.234;7.444;2022-07-19T14:35:17;1.70;;;0.82;;
31660;SDS011;18267;52.234;7.444;2022-07-19T14:37:43;2.78;;;0.95;;
31660;SDS011;18267;52.234;7.444;2022-07-19T14:40:09;1.20;;;1.10;;
31660;SDS011;18267;52.234;7.444;2022-07-19T14:42:36;1.13;;;0.90;;
31660;SDS011;18267;52.234;7.444;2022-07-19T14:45:03;5.82;;;1.50;;
31660;SDS011;18267;52.234;7.444;2022-07-19T14:47:29;3.00;;;1.40;;
31660;SDS011;18267;52.234;7.444;2022-07-19T14:49:55;2.83;;;1.58;;
31660;SDS011;18267;52.234;7.444;2022-07-19T14:52:20;4.30;;;1.80;;
31660;SDS011;18267;52.234;7.444;2022-07-19T14:54:46;2.28;;;1.38;;
31660;SDS011;18267;52.234;7.444;2022-07-19T14:57:11;5.97;;;1.38;;
31660;SDS011;18267;52.234;7.444;2022-07-19T14:59:37;2.85;;;1.33;;
31660;SDS011;18267;52.234;7.444;2022-07-19T15:02:03;3.00;;;2.10;;
31660;SDS011;18267;52.234;7.444;2022-07-19T15:04:29;3.65;;;2.30;;
31660;SDS011;18267;52.234;7.444;2022-07-19T15:06:54;4.18;;;2.60;;
31660;SDS011;18267;52.234;7.444;2022-07-19T15:09:20;5.97;;;2.50;;
31660;SDS011;18267;52.234;7.444;2022-07-19T15:11:46;6.03;;;1.85;;
31660;SDS011;18267;52.234;7.444;2022-07-19T15:14:12;2.22;;;1.90;;
31660;SDS011;18267;52.234;7.444;2022-07-19T15:16:39;5.65;;;1.70;;
31660;SDS011;18267;52.234;7.444;2022-07-19T15:19:05;1.70;;;1.60;;
31660;SDS011;18267;52.234;7.444;2022-07-19T15:21:31;3.55;;;1.42;;
31660;SDS011;18267;52.234;7.444;2022-07-19T15:23:59;4.70;;;1.70;;
31660;SDS011;18267;52.234;7.444;2022-07-19T15:26:27;4.63;;;1.60;;
31660;SDS011;18267;52.234;7.444;2022-07-19T15:28:53;6.20;;;1.50;;